Accueil
METAR-TAF:

METAR-TAF

Aéroports :

Bujumbura, Burundi

Aéroport international de Bujumbura

latitude: 03-19S, longitude: 029-19E, altitude: 782 m

METAR: absent

Heure: 05:37 (03:37 UTC)

Prévision

Le bulletin a été fait il y a 6 heures et 37 minutes, à 21:00 UTC
Prévision valable du 26 à 00 UTC au 27 à 06 UTC
Vent 5 kt de sud avec des rafales jusqu'à 22 kt
Visibilité 10 km ou plus
pas de nuages en-dessous de 1500 mètres et pas de cumulonimbus.

TAF: HBBA 252100Z 2600/2706 36004KT CAVOK BECMG2603/2605 VRB03KT 9999 FEW030 SCT100 BECMG2608/2610 18012G22KT 9999 FEW035 BECMG2617/2619 18005KT CAVOK

Observations et prévisions météorologiques de plus de 4000 aéroports (messages METAR et TAF).

Les stations disponibles sont représentées par des disques jaunes et rouges sur la carte.

Passer la souris dessus pour voir le nom de la station.

Cliquer dessus pour voir les observations et prévisions météorologiques.

Pour changer de carte: cliquez sur les boutons verts avec une croix noire pour zoomer, sur le bouton vert avec un tiret pour effectuer un zoom arrière, ou sur les flèches vertes pour les cartes adjacentes.


METAR-TAF: